createdAt,value
2022-10-04T00:00:09.623Z,10.20
2022-10-04T00:02:47.676Z,10.10
2022-10-04T00:05:18.990Z,9.80
2022-10-04T00:07:56.591Z,9.70
2022-10-04T00:10:30.623Z,9.60
2022-10-04T00:13:00.529Z,9.50
2022-10-04T00:15:31.144Z,9.70
2022-10-04T00:18:21.042Z,9.80
2022-10-04T00:21:01.976Z,9.80
2022-10-04T00:23:44.914Z,9.90
2022-10-04T00:26:53.407Z,10.00
2022-10-04T00:29:35.703Z,10.00
2022-10-04T00:32:27.563Z,9.90
2022-10-04T00:34:57.468Z,9.60
2022-10-04T00:37:32.870Z,9.50
2022-10-04T00:40:10.322Z,9.50
2022-10-04T00:42:53.533Z,9.50
2022-10-04T00:45:31.553Z,9.50
2022-10-04T00:48:30.435Z,9.70
2022-10-04T00:51:12.443Z,9.70
2022-10-04T00:54:01.254Z,9.80
2022-10-04T00:56:37.841Z,9.80
2022-10-04T00:59:29.576Z,9.80
2022-10-04T01:02:02.628Z,9.80
2022-10-04T01:04:41.789Z,9.90
2022-10-04T01:07:17.476Z,9.90
2022-10-04T01:09:53.390Z,9.90
2022-10-04T01:12:37.088Z,9.70
2022-10-04T01:15:10.230Z,9.40
2022-10-04T01:17:37.209Z,9.30
2022-10-04T01:20:34.619Z,9.30
2022-10-04T01:23:03.899Z,9.30
2022-10-04T01:25:46.404Z,9.40
2022-10-04T01:28:16.559Z,9.30
2022-10-04T01:30:44.411Z,9.40
2022-10-04T01:33:19.859Z,9.40
2022-10-04T01:35:55.604Z,9.40
2022-10-04T01:38:23.976Z,9.50
2022-10-04T01:41:04.903Z,9.60
2022-10-04T01:43:39.014Z,9.50
2022-10-04T01:46:11.523Z,9.50
2022-10-04T01:48:43.732Z,9.50
2022-10-04T01:51:18.897Z,9.20
2022-10-04T01:53:53.867Z,9.20
2022-10-04T01:56:25.247Z,9.20
2022-10-04T01:59:06.026Z,9.20
2022-10-04T02:01:48.385Z,9.30
2022-10-04T02:04:22.231Z,9.30
2022-10-04T02:06:54.222Z,9.40
2022-10-04T02:09:25.888Z,9.50
2022-10-04T02:11:59.641Z,9.30
2022-10-04T02:14:32.107Z,9.20
2022-10-04T02:17:05.289Z,9.10
2022-10-04T02:19:36.507Z,9.10
2022-10-04T02:22:05.389Z,9.20
2022-10-04T02:24:42.265Z,9.20
2022-10-04T02:27:09.282Z,9.30
2022-10-04T02:29:36.295Z,9.30
2022-10-04T02:32:33.953Z,9.10
2022-10-04T02:35:05.038Z,9.20
2022-10-04T02:37:35.034Z,9.20
2022-10-04T02:40:12.195Z,9.10
2022-10-04T02:42:52.004Z,8.90
2022-10-04T02:45:25.561Z,9.10
2022-10-04T02:47:58.425Z,9.00
2022-10-04T02:50:31.313Z,8.90
2022-10-04T02:53:08.232Z,8.90
2022-10-04T02:55:37.593Z,9.00
2022-10-04T02:58:10.899Z,9.10
2022-10-04T03:00:49.738Z,9.10
2022-10-04T03:03:24.895Z,9.10
2022-10-04T03:06:04.405Z,8.90
2022-10-04T03:08:35.138Z,8.90
2022-10-04T03:11:08.298Z,8.70
2022-10-04T03:13:37.143Z,8.80
2022-10-04T03:16:05.567Z,8.80
2022-10-04T03:18:34.947Z,9.00
2022-10-04T03:21:05.915Z,9.00
2022-10-04T03:23:33.624Z,9.10
2022-10-04T03:26:17.165Z,9.20
2022-10-04T03:28:47.820Z,9.20
2022-10-04T03:31:15.954Z,9.10
2022-10-04T03:33:44.157Z,9.00
2022-10-04T03:36:20.153Z,8.90
2022-10-04T03:38:48.931Z,8.90
2022-10-04T03:41:18.358Z,8.80
2022-10-04T03:43:47.197Z,9.00
2022-10-04T03:46:23.202Z,9.10
2022-10-04T03:48:53.378Z,9.00
2022-10-04T03:51:24.482Z,8.80
2022-10-04T03:53:54.074Z,8.90
2022-10-04T03:56:37.377Z,8.90
2022-10-04T03:59:06.661Z,9.00
2022-10-04T04:01:41.141Z,9.00
2022-10-04T04:04:23.457Z,8.90
2022-10-04T04:07:01.909Z,8.90
2022-10-04T04:09:43.252Z,8.70
2022-10-04T04:12:17.324Z,8.80
2022-10-04T04:14:45.454Z,8.80
2022-10-04T04:17:41.690Z,8.80
2022-10-04T04:20:26.392Z,8.80
2022-10-04T04:23:01.677Z,8.80
2022-10-04T04:25:35.421Z,8.80
2022-10-04T04:28:19.340Z,8.80
2022-10-04T04:30:50.094Z,8.80
2022-10-04T04:33:27.104Z,8.70
2022-10-04T04:36:05.398Z,8.70
2022-10-04T04:38:35.582Z,8.80
2022-10-04T04:41:11.554Z,8.90
2022-10-04T04:43:45.088Z,8.80
2022-10-04T04:46:27.630Z,8.80
2022-10-04T04:49:02.522Z,8.90
2022-10-04T04:51:32.486Z,8.90
2022-10-04T04:54:02.890Z,8.80
2022-10-04T04:56:36.157Z,8.90
2022-10-04T04:59:12.051Z,8.80
2022-10-04T05:01:50.313Z,8.70
2022-10-04T05:04:26.331Z,8.60
2022-10-04T05:07:02.712Z,8.60
2022-10-04T05:09:32.096Z,8.70
2022-10-04T05:12:08.713Z,8.70
2022-10-04T05:14:46.242Z,8.70
2022-10-04T05:17:27.791Z,8.70
2022-10-04T05:19:59.615Z,8.70
2022-10-04T05:22:27.664Z,8.80
2022-10-04T05:24:59.509Z,8.80
2022-10-04T05:27:31.911Z,8.90
2022-10-04T05:30:07.480Z,8.90
2022-10-04T05:32:46.791Z,8.90
2022-10-04T05:35:22.771Z,8.90
2022-10-04T05:38:06.843Z,8.90
2022-10-04T05:40:46.842Z,8.90
2022-10-04T05:43:30.543Z,8.90
2022-10-04T05:46:19.035Z,9.00
2022-10-04T05:48:52.141Z,9.00
2022-10-04T05:51:20.731Z,9.00
2022-10-04T05:53:49.980Z,9.10
2022-10-04T05:56:51.138Z,9.00
2022-10-04T05:59:46.867Z,9.00
2022-10-04T06:02:31.268Z,9.00
2022-10-04T06:05:10.152Z,9.00
2022-10-04T06:07:43.199Z,9.10
2022-10-04T06:10:58.062Z,9.00
2022-10-04T06:14:07.748Z,9.00
2022-10-04T06:16:57.619Z,9.20
2022-10-04T06:19:46.699Z,9.30
2022-10-04T06:22:17.350Z,9.40
2022-10-04T06:24:49.019Z,9.30
2022-10-04T06:27:21.370Z,9.30
2022-10-04T06:29:53.735Z,9.40
2022-10-04T06:32:59.852Z,9.40
2022-10-04T06:36:09.605Z,9.40
2022-10-04T06:39:17.140Z,9.30
2022-10-04T06:42:21.420Z,9.40
2022-10-04T06:45:28.159Z,9.40
2022-10-04T06:48:18.534Z,9.50
2022-10-04T06:51:02.540Z,9.50
2022-10-04T06:57:15.797Z,9.60
2022-10-04T07:00:08.679Z,9.60
2022-10-04T07:02:44.310Z,9.50
2022-10-04T07:05:30.200Z,9.70
2022-10-04T07:08:12.578Z,9.90
2022-10-04T07:10:52.628Z,9.90
2022-10-04T07:13:44.637Z,10.00
2022-10-04T07:16:29.314Z,10.10
2022-10-04T07:19:26.200Z,10.20
2022-10-04T07:22:01.313Z,10.30
2022-10-04T07:24:57.744Z,10.40
2022-10-04T07:27:33.054Z,10.40
2022-10-04T07:30:14.728Z,10.40
2022-10-04T07:32:45.637Z,10.50
2022-10-04T07:35:32.749Z,10.50
2022-10-04T07:38:09.605Z,10.50
2022-10-04T07:40:41.524Z,10.60
2022-10-04T07:43:20.003Z,10.60
2022-10-04T07:45:51.533Z,10.60
2022-10-04T07:48:24.725Z,10.70
2022-10-04T07:51:05.399Z,10.70
2022-10-04T07:53:40.152Z,10.70
2022-10-04T07:56:12.607Z,10.70
2022-10-04T07:59:04.841Z,10.70
2022-10-04T08:01:42.557Z,10.80
2022-10-04T08:04:30.341Z,10.90
2022-10-04T08:07:03.779Z,11.00
2022-10-04T08:09:51.445Z,11.00
2022-10-04T08:12:29.987Z,11.10
2022-10-04T08:15:29.344Z,11.10
2022-10-04T08:18:09.075Z,11.10
2022-10-04T08:20:47.343Z,11.10
2022-10-04T08:23:41.628Z,11.10
2022-10-04T08:26:38.920Z,11.20
2022-10-04T08:29:44.563Z,11.20
2022-10-04T08:33:07.033Z,11.30
2022-10-04T08:35:56.007Z,11.30
2022-10-04T08:38:47.012Z,11.40
2022-10-04T08:42:12.667Z,11.50
2022-10-04T08:45:37.115Z,11.60
2022-10-04T08:52:08.004Z,11.80
2022-10-04T08:55:06.950Z,11.80
2022-10-04T08:58:05.495Z,11.90
2022-10-04T09:00:50.863Z,11.90
2022-10-04T09:04:29.769Z,12.00
2022-10-04T09:07:18.275Z,12.10
2022-10-04T09:10:25.082Z,12.10
2022-10-04T09:13:32.354Z,12.20
2022-10-04T09:16:16.733Z,12.20
2022-10-04T09:19:00.304Z,12.20
2022-10-04T09:21:40.075Z,12.30
2022-10-04T09:24:44.228Z,12.30
2022-10-04T09:27:54.697Z,12.40
2022-10-04T09:30:25.111Z,12.50
2022-10-04T09:33:22.380Z,12.60
2022-10-04T09:36:10.142Z,12.70
2022-10-04T09:39:30.544Z,12.70
2022-10-04T09:42:15.223Z,12.80
2022-10-04T09:45:11.519Z,12.80
2022-10-04T09:47:45.946Z,12.90
2022-10-04T09:51:05.524Z,13.00
2022-10-04T09:53:46.984Z,13.00
2022-10-04T09:56:42.962Z,13.00
2022-10-04T09:59:36.559Z,13.20
2022-10-04T10:02:46.440Z,13.30
2022-10-04T10:05:36.776Z,13.40
2022-10-04T10:08:17.140Z,13.60
2022-10-04T10:11:18.109Z,13.60
2022-10-04T10:14:21.283Z,13.60
2022-10-04T10:17:01.391Z,13.60
2022-10-04T10:19:58.060Z,13.60
2022-10-04T10:22:53.167Z,13.60
2022-10-04T10:25:44.869Z,13.70
2022-10-04T10:28:41.022Z,13.70
2022-10-04T10:31:31.365Z,13.80
2022-10-04T10:34:42.439Z,13.90
2022-10-04T10:37:13.155Z,14.00
2022-10-04T10:40:23.899Z,14.00
2022-10-04T10:43:18.442Z,14.10
2022-10-04T10:46:12.083Z,14.20
2022-10-04T10:49:20.071Z,14.20
2022-10-04T10:52:25.393Z,14.20
2022-10-04T10:55:23.404Z,14.30
2022-10-04T10:58:37.723Z,14.20
2022-10-04T11:01:47.590Z,14.30
2022-10-04T11:04:54.688Z,14.30
2022-10-04T11:07:51.892Z,14.40
2022-10-04T11:10:48.839Z,14.40
2022-10-04T11:13:54.191Z,14.50
2022-10-04T11:17:20.766Z,14.60
2022-10-04T11:20:36.449Z,14.60
2022-10-04T11:23:42.849Z,14.60
2022-10-04T11:26:49.788Z,14.70
2022-10-04T11:29:46.310Z,14.70
2022-10-04T11:33:17.238Z,14.90
2022-10-04T11:36:08.128Z,14.80
2022-10-04T11:39:13.566Z,14.80
2022-10-04T11:41:51.735Z,14.80
2022-10-04T11:44:41.359Z,14.80
2022-10-04T11:47:26.592Z,14.80
2022-10-04T11:50:24.033Z,14.90
2022-10-04T11:53:35.934Z,14.90
2022-10-04T11:56:56.551Z,15.00
2022-10-04T11:59:40.134Z,15.00
2022-10-04T12:02:36.131Z,14.90
2022-10-04T12:05:40.731Z,14.90
2022-10-04T12:08:29.157Z,14.90
2022-10-04T12:11:50.543Z,15.00
2022-10-04T12:14:35.679Z,15.00
2022-10-04T12:17:46.364Z,15.00
2022-10-04T12:20:34.260Z,15.10
2022-10-04T12:23:36.913Z,15.10
2022-10-04T12:26:32.931Z,15.10
2022-10-04T12:30:00.034Z,15.10
2022-10-04T12:32:32.854Z,15.20
2022-10-04T12:35:15.282Z,15.30
2022-10-04T12:38:12.681Z,15.30
2022-10-04T12:40:46.821Z,15.30
2022-10-04T12:43:24.124Z,15.30
2022-10-04T12:46:08.308Z,15.30
2022-10-04T12:48:57.201Z,15.30
2022-10-04T12:51:51.401Z,15.40
2022-10-04T12:54:36.830Z,15.40
2022-10-04T12:57:38.006Z,15.50
2022-10-04T13:00:16.877Z,15.50
2022-10-04T13:03:05.120Z,15.60
2022-10-04T13:05:41.300Z,15.60
2022-10-04T13:08:26.536Z,15.50
2022-10-04T13:11:23.699Z,15.50
2022-10-04T13:14:25.928Z,15.60
2022-10-04T13:17:35.356Z,15.60
2022-10-04T13:19:59.039Z,15.70
2022-10-04T13:22:57.020Z,15.80
2022-10-04T13:25:52.890Z,15.80
2022-10-04T13:28:27.885Z,15.80
2022-10-04T13:31:04.189Z,15.90
2022-10-04T13:33:40.325Z,15.90
2022-10-04T13:36:12.475Z,16.00
2022-10-04T13:39:09.597Z,16.00
2022-10-04T13:42:06.650Z,16.00
2022-10-04T13:45:01.469Z,16.00
2022-10-04T13:47:56.511Z,16.00
2022-10-04T13:50:38.347Z,16.00
2022-10-04T13:53:40.722Z,16.00
2022-10-04T13:56:40.001Z,16.00
2022-10-04T13:59:18.571Z,16.10
2022-10-04T14:02:30.047Z,16.10
2022-10-04T14:05:57.188Z,16.10
2022-10-04T14:09:10.608Z,16.10
2022-10-04T14:12:04.394Z,16.10
2022-10-04T14:15:24.110Z,16.00
2022-10-04T14:18:39.236Z,16.00
2022-10-04T14:21:41.174Z,16.20
2022-10-04T14:24:47.844Z,16.30
2022-10-04T14:27:45.120Z,16.20
2022-10-04T14:30:20.332Z,16.20
2022-10-04T14:33:39.891Z,16.20
2022-10-04T14:36:36.895Z,16.20
2022-10-04T14:39:27.838Z,16.20
2022-10-04T14:42:46.694Z,16.20
2022-10-04T14:45:38.739Z,16.30
2022-10-04T14:48:35.813Z,16.40
2022-10-04T14:51:32.126Z,16.40
2022-10-04T14:54:04.482Z,16.30
2022-10-04T14:56:59.118Z,16.40
2022-10-04T15:00:01.120Z,16.30
2022-10-04T15:03:02.992Z,16.40
2022-10-04T15:05:45.240Z,16.40
2022-10-04T15:08:51.491Z,16.30
2022-10-04T15:11:35.296Z,16.30
2022-10-04T15:14:34.131Z,16.40
2022-10-04T15:17:04.713Z,16.40
2022-10-04T15:19:44.341Z,16.40
2022-10-04T15:22:22.192Z,16.40
2022-10-04T15:24:52.201Z,16.40
2022-10-04T15:27:51.723Z,16.40
2022-10-04T15:30:30.654Z,16.40
2022-10-04T15:33:20.579Z,16.40
2022-10-04T15:36:11.880Z,16.40
2022-10-04T15:38:49.327Z,16.30
2022-10-04T15:41:22.046Z,16.30
2022-10-04T15:44:33.456Z,16.30
2022-10-04T15:47:15.376Z,16.30
2022-10-04T15:49:58.843Z,16.30
2022-10-04T15:53:04.167Z,16.30
2022-10-04T15:56:01.794Z,16.30
2022-10-04T15:58:56.004Z,16.30
2022-10-04T16:01:49.452Z,16.30
2022-10-04T16:04:42.347Z,16.30
2022-10-04T16:07:32.225Z,16.30
2022-10-04T16:10:14.975Z,16.20
2022-10-04T16:13:26.311Z,16.20
2022-10-04T16:16:31.296Z,16.20
2022-10-04T16:19:11.173Z,16.20
2022-10-04T16:21:51.663Z,16.30
2022-10-04T16:24:45.663Z,16.20
2022-10-04T16:28:05.650Z,16.10
2022-10-04T16:30:41.397Z,16.10
2022-10-04T16:33:31.338Z,16.10
2022-10-04T16:36:15.249Z,16.00
2022-10-04T16:39:07.925Z,16.00
2022-10-04T16:41:42.169Z,15.90
2022-10-04T16:44:29.452Z,15.90
2022-10-04T16:47:01.903Z,15.90
2022-10-04T16:49:41.166Z,15.80
2022-10-04T16:52:48.499Z,15.70
2022-10-04T16:55:51.956Z,15.60
2022-10-04T16:58:57.092Z,15.50
2022-10-04T17:02:15.278Z,15.30
2022-10-04T17:05:07.773Z,15.30
2022-10-04T17:08:07.207Z,15.10
2022-10-04T17:10:45.524Z,15.10
2022-10-04T17:13:23.508Z,15.10
2022-10-04T17:16:01.654Z,15.00
2022-10-04T17:18:41.879Z,14.90
2022-10-04T17:21:26.973Z,14.80
2022-10-04T17:24:17.110Z,14.70
2022-10-04T17:27:05.610Z,14.70
2022-10-04T17:29:55.072Z,14.60
2022-10-04T17:32:29.996Z,14.50
2022-10-04T17:35:14.965Z,14.40
2022-10-04T17:37:54.151Z,14.40
2022-10-04T17:40:37.646Z,14.40
2022-10-04T17:43:16.557Z,14.40
2022-10-04T17:46:02.397Z,14.50
2022-10-04T17:48:52.512Z,14.30
2022-10-04T17:51:58.715Z,14.30
2022-10-04T17:54:51.634Z,14.30
2022-10-04T17:57:25.616Z,14.30
2022-10-04T18:00:10.164Z,14.10
2022-10-04T18:03:09.831Z,14.00
2022-10-04T18:05:49.428Z,14.00
2022-10-04T18:08:28.467Z,14.00
2022-10-04T18:11:00.520Z,14.00
2022-10-04T18:13:34.121Z,13.90
2022-10-04T18:16:10.523Z,14.00
2022-10-04T18:18:43.118Z,14.00
2022-10-04T18:21:23.603Z,14.00
2022-10-04T18:23:57.455Z,13.80
2022-10-04T18:26:30.153Z,13.80
2022-10-04T18:29:00.711Z,13.80
2022-10-04T18:31:36.459Z,13.70
2022-10-04T18:34:18.594Z,13.60
2022-10-04T18:36:55.819Z,13.60
2022-10-04T18:39:24.434Z,13.60
2022-10-04T18:42:01.535Z,13.50
2022-10-04T18:44:43.941Z,13.40
2022-10-04T18:47:21.012Z,13.50
2022-10-04T18:49:52.727Z,13.40
2022-10-04T18:52:38.144Z,13.30
2022-10-04T18:55:22.328Z,13.30
2022-10-04T18:58:18.333Z,13.40
2022-10-04T19:01:10.874Z,13.40
2022-10-04T19:03:46.518Z,13.30
2022-10-04T19:06:19.902Z,13.30
2022-10-04T19:08:57.923Z,13.30
2022-10-04T19:11:34.974Z,13.20
2022-10-04T19:14:10.236Z,13.10
2022-10-04T19:16:46.438Z,13.10
2022-10-04T19:19:42.657Z,13.10
2022-10-04T19:22:26.576Z,13.10
2022-10-04T19:25:31.622Z,13.20
2022-10-04T19:28:04.718Z,13.10
2022-10-04T19:30:50.748Z,13.20
2022-10-04T19:33:24.641Z,13.10
2022-10-04T19:36:20.635Z,12.90
2022-10-04T19:39:01.433Z,12.90
2022-10-04T19:41:47.997Z,13.00
2022-10-04T19:44:30.148Z,13.00
2022-10-04T19:47:04.476Z,13.00
2022-10-04T19:49:42.957Z,12.90
2022-10-04T19:52:35.363Z,12.80
2022-10-04T19:55:15.159Z,12.80
2022-10-04T19:57:42.832Z,12.80
2022-10-04T20:00:13.393Z,12.80
2022-10-04T20:02:48.732Z,12.70
2022-10-04T20:05:24.562Z,12.70
2022-10-04T20:07:56.313Z,12.70
2022-10-04T20:10:31.171Z,12.60
2022-10-04T20:13:24.770Z,12.70
2022-10-04T20:15:56.561Z,12.60
2022-10-04T20:19:05.615Z,12.60
2022-10-04T20:21:32.957Z,12.60
2022-10-04T20:24:01.434Z,12.60
2022-10-04T20:27:04.620Z,12.60
2022-10-04T20:30:05.883Z,12.50
2022-10-04T20:33:01.785Z,12.50
2022-10-04T20:36:08.839Z,12.50
2022-10-04T20:38:54.653Z,12.40
2022-10-04T20:42:25.015Z,12.40
2022-10-04T20:44:58.296Z,12.40
2022-10-04T20:47:39.011Z,12.40
2022-10-04T20:50:33.865Z,12.40
2022-10-04T20:53:06.821Z,12.50
2022-10-04T20:55:36.677Z,12.30
2022-10-04T20:58:21.334Z,12.40
2022-10-04T21:00:53.105Z,12.30
2022-10-04T21:03:21.372Z,12.30
2022-10-04T21:06:02.977Z,12.30
2022-10-04T21:08:32.562Z,12.30
2022-10-04T21:11:20.040Z,12.20
2022-10-04T21:13:59.085Z,12.30
2022-10-04T21:16:48.120Z,12.20
2022-10-04T21:19:45.560Z,12.10
2022-10-04T21:22:35.309Z,12.00
2022-10-04T21:25:28.097Z,12.00
2022-10-04T21:28:31.618Z,11.90
2022-10-04T21:31:01.218Z,11.80
2022-10-04T21:33:28.237Z,11.90
2022-10-04T21:35:55.302Z,11.80
2022-10-04T21:38:22.152Z,11.60
2022-10-04T21:40:50.519Z,11.70
2022-10-04T21:43:17.411Z,11.70
2022-10-04T21:45:44.523Z,11.80
2022-10-04T21:48:11.544Z,11.90
2022-10-04T21:50:38.532Z,11.80
2022-10-04T21:53:05.742Z,11.80
2022-10-04T21:55:32.875Z,11.80
2022-10-04T21:58:01.244Z,11.80
2022-10-04T22:00:28.881Z,11.70
2022-10-04T22:02:55.943Z,11.70
2022-10-04T22:05:22.947Z,11.70
2022-10-04T22:07:49.931Z,11.70
2022-10-04T22:10:17.189Z,11.70
2022-10-04T22:12:44.342Z,11.60
2022-10-04T22:15:12.961Z,11.60
2022-10-04T22:17:39.962Z,11.60
2022-10-04T22:20:07.491Z,11.50
2022-10-04T22:22:39.608Z,11.50
2022-10-04T22:25:15.567Z,11.60
2022-10-04T22:27:42.835Z,11.60
2022-10-04T22:30:22.731Z,11.60
2022-10-04T22:32:50.701Z,11.50
2022-10-04T22:35:19.886Z,11.40
2022-10-04T22:37:47.915Z,11.50
2022-10-04T22:40:18.949Z,11.50
2022-10-04T22:42:49.603Z,11.60
2022-10-04T22:45:22.606Z,11.50
2022-10-04T22:47:50.478Z,11.40
2022-10-04T22:50:34.461Z,11.30
2022-10-04T22:53:10.673Z,11.40
2022-10-04T22:55:37.782Z,11.40
2022-10-04T22:58:04.755Z,11.40
2022-10-04T23:00:32.985Z,11.30
2022-10-04T23:03:00.745Z,11.20
2022-10-04T23:05:28.198Z,11.00
2022-10-04T23:07:55.171Z,10.90
2022-10-04T23:10:22.124Z,11.00
2022-10-04T23:12:49.350Z,11.10
2022-10-04T23:15:19.651Z,11.20
2022-10-04T23:17:54.225Z,11.20
2022-10-04T23:20:21.975Z,11.20
2022-10-04T23:22:51.100Z,11.10
2022-10-04T23:25:20.813Z,11.10
2022-10-04T23:27:48.413Z,11.10
2022-10-04T23:30:19.178Z,11.10
2022-10-04T23:32:49.707Z,11.00
2022-10-04T23:35:20.055Z,11.10
2022-10-04T23:37:48.391Z,11.00
2022-10-04T23:40:18.985Z,10.90
2022-10-04T23:42:49.259Z,10.90
2022-10-04T23:45:19.425Z,10.70
2022-10-04T23:47:49.933Z,10.70
2022-10-04T23:50:23.722Z,10.90
2022-10-04T23:52:52.854Z,11.00
2022-10-04T23:55:22.875Z,11.10
2022-10-04T23:57:50.481Z,11.10
